Time;durP1;ratioP1;P1;durP2;ratioP2;P2;SDS_P1;SDS_P2;PMS_P1;PMS_P2;Temp;Humidity;BMP_temperature;BMP_pressure;BME280_temperature;BME280_humidity;BME280_pressure;Samples;Min_cycle;Max_cycle;Signal;HPM_P1;HPM_P2
2023/07/12 00:01:24;;;;;;;1.90;1.40;;;;;;;25.63;51.38;100820.19;5034158;28;20092;-83
2023/07/12 00:03:49;;;;;;;2.00;1.60;;;;;;;25.57;51.71;100813.91;5033661;28;20035;-83
2023/07/12 00:06:36;;;;;;;1.73;1.40;;;;;;;25.63;51.35;100814.88;5040189;28;20029;-83
2023/07/12 00:09:14;;;;;;;1.70;1.60;;;;;;;25.62;51.73;100807.91;5030724;28;20034;-83
2023/07/12 00:11:40;;;;;;;1.77;1.30;;;;;;;25.54;51.66;100790.34;5030655;28;20045;-84
2023/07/12 00:14:06;;;;;;;1.60;1.30;;;;;;;25.61;51.72;100793.75;5033519;28;20056;-83
2023/07/12 00:16:38;;;;;;;2.03;1.40;;;;;;;25.62;51.46;100799.91;5027105;28;20044;-83
2023/07/12 00:19:04;;;;;;;1.88;1.52;;;;;;;25.51;51.33;100782.78;5035733;28;20044;-82
2023/07/12 00:21:31;;;;;;;1.55;1.45;;;;;;;25.53;51.48;100787.91;5032767;28;20046;-81
2023/07/12 00:23:59;;;;;;;1.95;1.30;;;;;;;25.51;51.58;100780.13;5031320;28;20036;-83
2023/07/12 00:26:31;;;;;;;1.90;1.52;;;;;;;25.61;51.68;100801.75;5053034;28;20048;-83
2023/07/12 00:28:59;;;;;;;1.50;1.40;;;;;;;25.53;51.76;100778.03;5034321;28;20095;-83
2023/07/12 00:31:25;;;;;;;2.13;1.27;;;;;;;25.60;51.24;100780.66;5039428;28;20097;-83
2023/07/12 00:33:51;;;;;;;1.40;1.30;;;;;;;25.55;51.58;100777.81;5047436;28;20706;-83
2023/07/12 00:36:20;;;;;;;1.52;1.38;;;;;;;25.57;51.21;100783.75;5037085;28;20510;-82
2023/07/12 00:38:46;;;;;;;1.73;1.40;;;;;;;25.58;51.63;100775.53;5033256;28;20203;-83
2023/07/12 00:41:17;;;;;;;1.60;1.50;;;;;;;25.59;51.45;100785.16;5038626;28;20387;-83
2023/07/12 00:43:43;;;;;;;1.60;1.15;;;;;;;25.56;51.58;100772.28;5039093;28;20021;-83
2023/07/12 00:46:31;;;;;;;1.33;1.23;;;;;;;25.55;51.43;100759.97;5037360;28;20115;-83
2023/07/12 00:48:57;;;;;;;1.35;1.25;;;;;;;25.55;51.25;100756.50;5041479;28;20113;-82
2023/07/12 00:51:46;;;;;;;2.83;1.55;;;;;;;25.57;51.46;100746.41;5036389;28;20144;-83
2023/07/12 00:54:15;;;;;;;1.98;1.70;;;;;;;25.55;51.40;100745.84;5035665;28;20041;-83
2023/07/12 00:56:42;;;;;;;2.08;1.42;;;;;;;25.55;51.18;100740.50;5034913;28;20042;-83
2023/07/12 00:59:15;;;;;;;2.60;1.60;;;;;;;25.52;51.54;100736.44;5053194;28;20116;-83
2023/07/12 01:01:41;;;;;;;1.73;1.42;;;;;;;25.53;51.20;100732.72;5039924;28;20045;-83
2023/07/12 01:04:11;;;;;;;1.55;1.45;;;;;;;25.54;51.10;100739.69;5015093;28;20120;-82
2023/07/12 01:06:38;;;;;;;1.90;1.30;;;;;;;25.44;51.40;100731.34;5048775;28;20042;-82
2023/07/12 01:09:11;;;;;;;1.48;1.35;;;;;;;25.52;51.49;100740.94;5034390;28;20033;-82
2023/07/12 01:11:38;;;;;;;1.35;1.25;;;;;;;25.52;51.54;100741.75;5035638;28;20116;-82
2023/07/12 01:14:13;;;;;;;1.98;1.25;;;;;;;25.53;51.38;100758.56;5034100;28;20041;-82
2023/07/12 01:16:41;;;;;;;1.73;1.55;;;;;;;25.48;51.43;100737.06;5034785;28;20312;-82
2023/07/12 01:19:06;;;;;;;3.17;1.70;;;;;;;25.53;51.49;100750.56;5027754;28;20069;-82
2023/07/12 01:21:33;;;;;;;2.45;1.50;;;;;;;25.46;51.34;100739.13;5033826;28;20037;-82
2023/07/12 01:24:00;;;;;;;2.58;1.35;;;;;;;25.52;51.26;100759.59;5018226;28;20044;-82
2023/07/12 01:26:57;;;;;;;1.92;1.48;;;;;;;25.52;51.15;100748.94;5037873;28;20047;-82
2023/07/12 01:29:24;;;;;;;2.35;1.40;;;;;;;25.46;51.02;100745.28;5035454;28;20064;-81
2023/07/12 01:31:50;;;;;;;1.95;1.25;;;;;;;25.45;51.41;100734.84;5028400;28;20072;-81
2023/07/12 01:34:17;;;;;;;1.60;1.30;;;;;;;25.51;51.13;100747.31;5035014;28;20029;-82
2023/07/12 01:36:44;;;;;;;2.28;1.48;;;;;;;25.49;51.09;100742.16;5031651;28;20034;-82
2023/07/12 01:39:10;;;;;;;1.13;1.00;;;;;;;25.45;51.31;100751.66;5030279;28;20033;-82
2023/07/12 01:41:36;;;;;;;2.05;1.27;;;;;;;25.50;51.42;100754.50;5031199;28;20084;-81
2023/07/12 01:44:02;;;;;;;1.48;1.33;;;;;;;25.49;51.13;100755.50;5035330;28;20030;-82
2023/07/12 01:46:29;;;;;;;1.38;1.17;;;;;;;25.46;51.10;100745.28;5033859;28;20044;-81
2023/07/12 01:48:56;;;;;;;2.17;1.50;;;;;;;25.46;51.19;100753.28;5032668;28;20048;-82
2023/07/12 01:51:28;;;;;;;1.30;1.20;;;;;;;25.44;51.28;100746.53;5030551;28;20030;-81
2023/07/12 01:53:53;;;;;;;;;;;;;;;25.46;51.40;100753.28;5031671;28;20623;-82
2023/07/12 01:56:19;;;;;;;1.38;1.10;;;;;;;25.45;51.15;100756.16;5032820;28;20064;-82
2023/07/12 01:58:44;;;;;;;1.35;1.25;;;;;;;25.47;51.42;100746.09;5032114;28;20029;-81
2023/07/12 02:01:10;;;;;;;1.63;1.30;;;;;;;25.45;51.46;100732.16;5028820;28;20105;-82
2023/07/12 02:03:36;;;;;;;1.40;1.30;;;;;;;25.45;51.12;100738.31;5035496;28;20119;-82
2023/07/12 02:06:01;;;;;;;1.27;1.02;;;;;;;25.45;51.17;100740.16;5033331;28;20064;-82
2023/07/12 02:08:27;;;;;;;2.05;1.40;;;;;;;25.37;51.10;100730.63;5050306;28;20148;-83
2023/07/12 02:10:53;;;;;;;1.42;1.33;;;;;;;25.44;51.13;100742.03;5041797;28;20025;-82
2023/07/12 02:13:21;;;;;;;1.65;1.45;;;;;;;25.42;51.13;100721.94;5028790;28;20049;-82
2023/07/12 02:15:47;;;;;;;1.40;1.30;;;;;;;25.39;51.28;100728.53;5031014;28;20072;-82
2023/07/12 02:18:12;;;;;;;1.33;1.10;;;;;;;25.37;50.97;100708.47;5026578;28;20827;-81
2023/07/12 02:20:39;;;;;;;1.20;1.13;;;;;;;25.44;51.40;100720.69;5032832;28;20045;-82
2023/07/12 02:23:06;;;;;;;2.03;1.30;;;;;;;25.44;51.05;100718.03;5035588;28;20038;-82
2023/07/12 02:25:33;;;;;;;1.38;0.98;;;;;;;25.37;51.31;100732.47;5030225;28;20068;-82
2023/07/12 02:27:59;;;;;;;1.58;1.45;;;;;;;25.37;51.15;100735.94;5051684;28;20132;-82
2023/07/12 02:30:30;;;;;;;1.40;1.30;;;;;;;25.39;51.41;100755.19;5049732;28;20049;-82
2023/07/12 02:32:55;;;;;;;1.13;1.00;;;;;;;25.41;51.08;100768.31;5049271;28;20033;-81
2023/07/12 02:35:27;;;;;;;2.55;1.38;;;;;;;25.42;51.14;100768.09;5037426;28;20040;-82
2023/07/12 02:37:54;;;;;;;1.85;1.40;;;;;;;25.38;50.98;100774.88;5033981;28;20042;-82
2023/07/12 02:40:19;;;;;;;2.28;1.00;;;;;;;25.42;51.28;100792.06;5036538;28;20040;-81
2023/07/12 02:42:45;;;;;;;2.58;1.60;;;;;;;25.39;51.35;100789.84;5046979;28;20047;-82
2023/07/12 02:45:10;;;;;;;2.95;1.40;;;;;;;25.41;51.12;100786.97;5038222;28;20036;-82
2023/07/12 02:47:36;;;;;;;1.65;1.35;;;;;;;25.33;51.37;100772.06;5033397;28;20048;-82
2023/07/12 02:50:03;;;;;;;1.00;1.00;;;;;;;25.37;51.30;100761.78;5032316;28;20867;-80
2023/07/12 02:52:29;;;;;;;1.67;1.40;;;;;;;25.35;51.36;100762.00;5031185;28;20058;-82
2023/07/12 02:54:55;;;;;;;1.25;1.15;;;;;;;25.34;51.31;100760.38;5029576;28;20524;-82
2023/07/12 02:57:20;;;;;;;1.35;1.25;;;;;;;25.38;50.95;100760.75;5037575;28;20060;-82
2023/07/12 02:59:46;;;;;;;1.45;1.35;;;;;;;25.33;50.96;100761.41;5033757;28;20049;-82
2023/07/12 03:02:13;;;;;;;2.13;1.33;;;;;;;25.36;51.30;100752.97;5042238;28;20979;-81
2023/07/12 03:04:39;;;;;;;1.45;1.33;;;;;;;25.36;51.23;100741.50;5033288;28;20116;-82
2023/07/12 03:07:05;;;;;;;1.70;1.30;;;;;;;25.32;50.91;100732.31;5030317;28;20498;-82
2023/07/12 03:09:31;;;;;;;1.55;1.38;;;;;;;25.35;50.84;100706.03;5033822;28;20415;-82
2023/07/12 03:11:57;;;;;;;2.80;1.60;;;;;;;25.35;50.80;100714.03;5030523;28;20091;-82
2023/07/12 03:14:24;;;;;;;1.38;1.27;;;;;;;25.34;50.88;100711.59;5032030;28;20048;-83
2023/07/12 03:16:49;;;;;;;2.40;1.60;;;;;;;25.28;50.80;100671.41;5039369;28;20395;-83
2023/07/12 03:19:16;;;;;;;2.35;1.60;;;;;;;25.29;51.01;100624.25;5031431;28;20025;-83
2023/07/12 03:21:42;;;;;;;1.55;1.35;;;;;;;25.27;51.22;100627.16;5040395;28;20017;-82
2023/07/12 03:24:08;;;;;;;1.70;1.38;;;;;;;25.33;50.80;100635.31;5041732;28;20036;-82
2023/07/12 03:26:34;;;;;;;1.40;1.30;;;;;;;25.32;51.06;100615.03;5048021;28;20033;-82
2023/07/12 03:28:59;;;;;;;2.03;1.50;;;;;;;25.26;51.02;100617.53;5040872;28;20040;-83
2023/07/12 03:31:28;;;;;;;1.73;1.23;;;;;;;25.30;50.99;100660.53;5013262;28;20068;-83
2023/07/12 03:33:54;;;;;;;1.50;1.38;;;;;;;25.28;50.98;100682.09;5037878;28;20644;-82
2023/07/12 03:36:21;;;;;;;1.98;1.42;;;;;;;25.28;50.70;100684.75;5036865;28;20037;-83
2023/07/12 03:38:47;;;;;;;2.13;1.50;;;;;;;25.33;50.81;100718.75;5031842;28;20041;-83
2023/07/12 03:41:17;;;;;;;2.28;1.08;;;;;;;25.33;51.04;100736.59;5038206;28;20060;-82
2023/07/12 03:43:42;;;;;;;1.48;1.27;;;;;;;25.31;50.98;100739.47;5037091;28;20124;-83
2023/07/12 03:46:08;;;;;;;1.52;1.42;;;;;;;25.32;51.04;100759.78;5037200;28;20033;-83
2023/07/12 03:48:33;;;;;;;3.15;1.85;;;;;;;25.32;50.92;100757.13;5030120;28;20166;-82
2023/07/12 03:50:59;;;;;;;2.50;1.30;;;;;;;25.32;50.91;100734.97;5035071;28;20029;-82
2023/07/12 03:53:26;;;;;;;1.40;1.30;;;;;;;25.30;51.00;100727.16;5034864;28;20584;-83
2023/07/12 03:55:52;;;;;;;2.33;1.70;;;;;;;25.30;50.69;100743.97;5030426;28;20072;-82
2023/07/12 03:58:21;;;;;;;1.83;1.50;;;;;;;25.22;51.05;100708.81;5031544;28;20045;-82
2023/07/12 04:00:49;;;;;;;1.73;1.35;;;;;;;25.28;50.76;100716.72;5032267;28;20038;-83
2023/07/12 04:03:15;;;;;;;2.28;1.38;;;;;;;25.27;50.60;100728.44;5033809;28;20030;-82
2023/07/12 04:05:42;;;;;;;3.35;1.63;;;;;;;25.29;50.75;100744.19;5033349;28;20100;-83
2023/07/12 04:08:09;;;;;;;2.00;1.70;;;;;;;25.29;50.91;100741.53;5031193;28;20041;-82
2023/07/12 04:10:35;;;;;;;2.00;1.42;;;;;;;25.27;50.95;100743.59;5029529;28;20041;-83
2023/07/12 04:13:02;;;;;;;2.28;2.00;;;;;;;25.28;50.66;100754.03;5033096;28;20045;-82
2023/07/12 04:15:27;;;;;;;1.45;1.35;;;;;;;25.27;50.75;100756.94;5038512;28;20034;-82
2023/07/12 04:17:53;;;;;;;3.85;1.80;;;;;;;25.30;50.91;100762.63;5033815;28;20677;-82
2023/07/12 04:20:19;;;;;;;1.92;1.67;;;;;;;25.29;50.83;100766.34;5037311;28;20052;-82
2023/07/12 04:22:48;;;;;;;2.60;1.52;;;;;;;25.25;50.87;100764.31;5051784;28;20037;-83
2023/07/12 04:25:15;;;;;;;2.65;1.58;;;;;;;25.29;50.83;100769.00;5038206;28;20049;-82
2023/07/12 04:27:41;;;;;;;2.95;1.63;;;;;;;25.27;50.95;100763.06;5040313;28;20056;-82
2023/07/12 04:30:10;;;;;;;1.67;1.42;;;;;;;25.26;50.82;100764.09;5019095;28;20037;-82
2023/07/12 04:32:36;;;;;;;2.72;2.13;;;;;;;25.20;51.03;100756.19;5037606;28;20490;-82
2023/07/12 04:35:02;;;;;;;2.33;1.75;;;;;;;25.24;50.57;100765.38;5052274;28;20042;-81
2023/07/12 04:37:27;;;;;;;1.77;1.40;;;;;;;25.20;50.96;100772.97;5036963;28;20041;-82
2023/07/12 04:39:53;;;;;;;3.67;1.75;;;;;;;25.22;50.95;100778.91;5037314;28;20047;-82
2023/07/12 04:42:19;;;;;;;2.85;1.92;;;;;;;25.24;51.00;100787.50;5034924;28;20050;-82
2023/07/12 04:44:45;;;;;;;2.28;1.45;;;;;;;25.24;50.95;100790.16;5035797;28;20038;-82
2023/07/12 04:47:11;;;;;;;2.35;1.45;;;;;;;25.17;50.81;100784.06;5035351;28;20044;-83
2023/07/12 04:49:36;;;;;;;3.40;1.70;;;;;;;25.22;51.00;100802.91;5033633;28;20041;-83
2023/07/12 04:52:04;;;;;;;2.80;1.60;;;;;;;25.24;50.77;100800.00;5035423;28;20117;-83
2023/07/12 04:54:32;;;;;;;1.48;1.38;;;;;;;25.23;50.80;100801.84;5038146;28;20533;-82
2023/07/12 04:56:58;;;;;;;2.40;1.70;;;;;;;25.19;50.54;100791.84;5037811;28;20049;-82
2023/07/12 04:59:24;;;;;;;3.05;1.52;;;;;;;25.19;50.97;100797.19;5041539;28;20786;-82
2023/07/12 05:01:49;;;;;;;1.40;1.30;;;;;;;25.22;50.82;100810.06;5036272;28;20033;-82
2023/07/12 05:04:15;;;;;;;2.58;1.70;;;;;;;25.18;50.76;100800.88;5036022;28;20048;-82
2023/07/12 05:06:40;;;;;;;2.53;1.58;;;;;;;25.17;50.57;100801.91;5036585;28;20026;-82
2023/07/12 05:09:06;;;;;;;3.40;1.90;;;;;;;25.24;50.65;100806.16;5032460;28;20091;-81
2023/07/12 05:11:32;;;;;;;2.65;1.30;;;;;;;25.21;50.79;100805.78;5038829;28;20045;-82
2023/07/12 05:13:57;;;;;;;3.97;1.77;;;;;;;25.23;50.87;100814.38;5041775;28;20049;-82
2023/07/12 05:16:23;;;;;;;2.53;1.70;;;;;;;25.23;50.79;100811.69;5033228;28;20065;-83
2023/07/12 05:18:48;;;;;;;2.60;1.60;;;;;;;25.23;50.65;100820.50;5038140;28;20067;-83
2023/07/12 05:21:14;;;;;;;2.53;1.70;;;;;;;25.23;50.45;100814.38;5038583;28;20038;-82
2023/07/12 05:23:40;;;;;;;2.17;1.50;;;;;;;25.24;50.89;100813.34;5038136;28;20041;-82
2023/07/12 05:26:06;;;;;;;2.05;1.52;;;;;;;25.25;50.39;100810.44;5036885;28;20033;-83
2023/07/12 05:28:32;;;;;;;2.33;1.50;;;;;;;25.26;50.60;100809.41;5040674;28;20037;-82
2023/07/12 05:30:57;;;;;;;1.60;1.50;;;;;;;25.27;50.70;100807.56;5042204;28;20046;-82
2023/07/12 05:33:24;;;;;;;3.85;1.45;;;;;;;25.29;50.46;100808.16;5039507;28;20042;-82
2023/07/12 05:35:49;;;;;;;3.13;1.67;;;;;;;25.24;50.30;100794.69;5052951;28;20468;-82
2023/07/12 05:38:16;;;;;;;2.78;1.90;;;;;;;25.30;50.60;100799.13;5039944;28;20047;-83
2023/07/12 05:40:41;;;;;;;3.67;1.80;;;;;;;25.29;50.20;100794.84;5039345;28;20042;-83
2023/07/12 05:43:07;;;;;;;1.92;1.73;;;;;;;25.32;50.39;100786.44;5036474;28;20379;-83
2023/07/12 05:45:32;;;;;;;2.28;1.38;;;;;;;25.33;50.53;100798.72;5033206;28;20046;-83
2023/07/12 05:47:58;;;;;;;3.50;1.80;;;;;;;25.32;50.27;100807.75;5037921;28;20045;-83
2023/07/12 05:50:25;;;;;;;3.45;1.60;;;;;;;25.33;50.32;100813.91;5041977;28;20048;-83
2023/07/12 05:52:50;;;;;;;2.88;1.70;;;;;;;25.33;50.16;100811.25;5034750;28;20029;-84
2023/07/12 05:55:17;;;;;;;1.98;1.60;;;;;;;25.33;50.59;100813.91;5034534;28;20045;-82
2023/07/12 05:57:44;;;;;;;3.28;1.70;;;;;;;25.25;50.46;100813.13;5041373;28;20045;-83
2023/07/12 06:00:10;;;;;;;2.72;1.95;;;;;;;25.30;50.27;100823.13;5038306;28;20114;-82
2023/07/12 06:02:38;;;;;;;2.30;1.80;;;;;;;25.29;50.54;100824.16;5053631;28;20064;-82
2023/07/12 06:05:05;;;;;;;2.58;1.50;;;;;;;25.28;50.41;100828.66;5038335;28;20395;-82
2023/07/12 06:07:31;;;;;;;2.40;1.70;;;;;;;25.27;50.31;100828.88;5035419;28;20033;-82
2023/07/12 06:09:56;;;;;;;3.22;2.00;;;;;;;25.29;50.69;100843.63;5040299;28;20432;-82
2023/07/12 06:12:22;;;;;;;3.40;1.77;;;;;;;25.20;50.47;100820.94;5035434;28;20044;-81
2023/07/12 06:14:48;;;;;;;2.97;1.98;;;;;;;25.25;50.15;100837.09;5024246;28;20049;-83
2023/07/12 06:17:13;;;;;;;2.83;1.88;;;;;;;25.32;50.25;100841.59;5032996;28;20059;-82
2023/07/12 06:19:39;;;;;;;3.03;1.63;;;;;;;25.33;50.46;100833.38;5037491;28;20064;-83
2023/07/12 06:22:05;;;;;;;2.72;1.70;;;;;;;25.33;50.23;100844.03;5034840;28;20049;-84
2023/07/12 06:24:30;;;;;;;2.97;1.80;;;;;;;25.36;50.10;100840.13;5020873;28;20483;-83
2023/07/12 06:26:56;;;;;;;2.53;1.80;;;;;;;25.37;50.07;100849.75;5041280;28;20045;-83
2023/07/12 06:29:22;;;;;;;2.35;1.80;;;;;;;25.28;50.28;100839.31;5035091;28;20045;-84
2023/07/12 06:31:47;;;;;;;3.20;1.90;;;;;;;25.38;50.23;100851.38;5041662;28;20045;-84
2023/07/12 06:34:13;;;;;;;3.17;2.15;;;;;;;25.35;50.21;100849.16;5020948;28;20037;-83
2023/07/12 06:36:38;;;;;;;4.45;2.20;;;;;;;25.41;49.85;100858.94;5042865;28;20052;-85
2023/07/12 06:39:04;;;;;;;4.72;2.10;;;;;;;25.40;49.98;100850.13;5041211;28;20048;-85
2023/07/12 06:41:30;;;;;;;5.00;2.20;;;;;;;25.42;50.25;100844.56;5052131;28;20045;-85
2023/07/12 06:43:56;;;;;;;6.72;2.67;;;;;;;25.37;49.91;100844.41;5039278;28;20030;-86
2023/07/12 06:46:22;;;;;;;4.25;2.20;;;;;;;25.41;49.76;100845.59;5038746;28;20060;-85
2023/07/12 06:48:48;;;;;;;5.32;2.10;;;;;;;25.39;49.83;100845.81;5054821;28;20125;-86
2023/07/12 06:51:14;;;;;;;6.40;2.75;;;;;;;25.30;49.90;100831.13;5057482;28;20057;-85
2023/07/12 06:53:39;;;;;;;5.65;2.58;;;;;;;25.38;49.55;100835.38;5041757;28;20052;-85
2023/07/12 06:56:07;;;;;;;6.78;2.83;;;;;;;25.39;49.44;100832.50;5037439;28;20049;-85
2023/07/12 06:58:33;;;;;;;6.40;3.08;;;;;;;25.42;49.46;100842.72;5042388;28;20490;-84
2023/07/12 07:00:59;;;;;;;8.85;2.78;;;;;;;25.38;49.33;100841.53;5021752;28;20038;-84
2023/07/12 07:03:25;;;;;;;4.68;2.50;;;;;;;25.46;49.71;100851.91;5036383;28;20041;-84
2023/07/12 07:05:51;;;;;;;6.40;2.55;;;;;;;25.51;49.39;100849.44;5032654;28;20101;-84
2023/07/12 07:08:19;;;;;;;5.63;2.55;;;;;;;25.53;49.30;100841.22;5035888;28;20061;-83
2023/07/12 07:10:49;;;;;;;4.05;2.30;;;;;;;25.54;49.67;100848.19;5054991;28;20041;-82
2023/07/12 07:13:15;;;;;;;3.88;2.53;;;;;;;25.56;49.20;100859.44;5046749;28;20463;-83
2023/07/12 07:15:41;;;;;;;3.28;2.25;;;;;;;25.55;49.61;100858.63;5037538;28;20037;-83
2023/07/12 07:18:08;;;;;;;3.45;2.30;;;;;;;25.54;49.72;100850.84;5038384;28;20034;-84
2023/07/12 07:20:33;;;;;;;5.43;2.60;;;;;;;25.50;49.72;100847.81;5039371;28;20037;-83
2023/07/12 07:22:59;;;;;;;4.88;2.10;;;;;;;25.58;49.59;100860.03;5037540;28;20155;-84
2023/07/12 07:25:28;;;;;;;5.18;2.00;;;;;;;25.58;49.16;100858.19;5035164;28;20041;-83
2023/07/12 07:27:54;;;;;;;5.72;2.53;;;;;;;25.59;49.48;100862.50;5044624;28;20065;-84
2023/07/12 07:30:20;;;;;;;5.78;2.50;;;;;;;25.55;49.58;100849.81;5051409;28;20080;-84
2023/07/12 07:32:45;;;;;;;6.68;2.05;;;;;;;25.57;49.46;100858.41;5036040;28;20072;-83
2023/07/12 07:35:11;;;;;;;4.43;2.80;;;;;;;25.64;49.05;100872.50;5030233;28;20037;-84
2023/07/12 07:37:37;;;;;;;5.30;2.22;;;;;;;25.63;48.84;100876.19;5049299;28;20569;-84
2023/07/12 07:40:03;;;;;;;6.57;2.22;;;;;;;25.64;49.36;100879.69;5032423;28;20034;-81
2023/07/12 07:42:29;;;;;;;5.28;2.17;;;;;;;25.62;49.34;100887.91;5030791;28;20462;-83
2023/07/12 07:44:54;;;;;;;4.18;2.03;;;;;;;25.55;49.22;100877.28;5037416;28;20048;-85
2023/07/12 07:47:21;;;;;;;4.53;2.30;;;;;;;25.58;49.21;100900.03;5034874;28;20060;-84
2023/07/12 07:49:46;;;;;;;4.32;2.38;;;;;;;25.63;49.26;100918.06;5041344;28;20041;-81
2023/07/12 07:52:12;;;;;;;5.72;2.88;;;;;;;25.63;49.08;100897.53;5039862;28;20041;-84
2023/07/12 07:54:39;;;;;;;6.00;2.20;;;;;;;25.68;49.13;100908.41;5052406;28;20032;-83
2023/07/12 07:57:06;;;;;;;4.95;2.17;;;;;;;25.66;48.78;100907.75;5033295;28;20087;-84
2023/07/12 07:59:31;;;;;;;5.63;2.28;;;;;;;25.60;48.98;100900.63;5035986;28;20900;-84
2023/07/12 08:01:57;;;;;;;5.70;2.55;;;;;;;25.60;49.32;100900.63;5033952;28;20041;-86
2023/07/12 08:04:24;;;;;;;3.28;2.15;;;;;;;25.61;49.25;100913.75;5034105;28;20041;-83
2023/07/12 08:06:50;;;;;;;4.28;2.40;;;;;;;25.62;49.37;100909.25;5037626;28;20045;-83
2023/07/12 08:09:16;;;;;;;3.95;2.33;;;;;;;25.59;49.49;100893.69;5032968;28;20079;-84
2023/07/12 08:11:42;;;;;;;3.10;2.03;;;;;;;25.62;49.11;100895.91;5032660;28;20747;-84
2023/07/12 08:14:08;;;;;;;6.28;2.67;;;;;;;25.55;49.13;100911.16;5053636;28;20042;-82
2023/07/12 08:16:35;;;;;;;4.53;2.53;;;;;;;25.61;49.39;100934.28;5036723;28;20064;-82
2023/07/12 08:19:04;;;;;;;4.85;2.75;;;;;;;25.59;49.32;100928.34;5035122;28;20101;-82
2023/07/12 08:21:30;;;;;;;4.05;2.35;;;;;;;25.58;49.18;100935.53;5032464;28;20399;-82
2023/07/12 08:23:56;;;;;;;5.32;2.60;;;;;;;25.57;49.52;100935.75;5037984;28;20100;-81
2023/07/12 08:26:22;;;;;;;5.30;2.33;;;;;;;25.54;49.46;100926.31;5050265;28;20136;-81
2023/07/12 08:28:48;;;;;;;3.92;2.55;;;;;;;25.55;49.22;100927.97;5019626;28;20033;-83
2023/07/12 08:31:14;;;;;;;2.95;2.05;;;;;;;25.55;49.39;100929.81;5037718;28;20088;-83
2023/07/12 08:33:41;;;;;;;5.47;2.30;;;;;;;25.54;49.60;100937.00;5053169;28;20051;-82
2023/07/12 08:36:07;;;;;;;4.43;2.22;;;;;;;25.53;49.51;100938.03;5037406;28;20072;-83
2023/07/12 08:38:33;;;;;;;5.90;2.97;;;;;;;25.53;49.17;100942.53;5037991;28;20029;-82
2023/07/12 08:40:59;;;;;;;3.97;2.35;;;;;;;25.54;49.43;100945.00;5025144;28;20041;-82
2023/07/12 08:43:31;;;;;;;4.22;2.53;;;;;;;25.55;49.56;100945.81;5039667;28;20045;-82
2023/07/12 08:46:03;;;;;;;5.65;3.00;;;;;;;25.56;49.12;100950.91;5039053;28;20051;-82
2023/07/12 08:48:29;;;;;;;4.18;2.47;;;;;;;25.50;49.08;100948.31;5039207;28;20045;-82
2023/07/12 08:50:55;;;;;;;3.28;2.55;;;;;;;25.55;49.39;100959.13;5038554;28;20050;-82
2023/07/12 08:53:29;;;;;;;4.22;2.35;;;;;;;25.56;49.18;100964.25;5040294;28;20128;-83
2023/07/12 08:55:57;;;;;;;5.15;2.58;;;;;;;25.53;49.11;100948.69;5034718;28;20030;-82
2023/07/12 08:58:37;;;;;;;4.80;2.50;;;;;;;25.55;49.28;100956.47;5024896;28;20455;-82
2023/07/12 09:01:15;;;;;;;2.95;2.65;;;;;;;25.54;49.17;100968.16;5041490;28;20029;-83
2023/07/12 09:03:41;;;;;;;3.53;2.28;;;;;;;25.52;49.36;100960.38;5048182;28;20503;-82
2023/07/12 09:06:14;;;;;;;4.88;2.95;;;;;;;25.52;49.34;100975.56;5041698;28;20041;-82
2023/07/12 09:08:43;;;;;;;8.77;2.50;;;;;;;25.52;49.49;100968.38;5039780;28;20534;-82
2023/07/12 09:11:19;;;;;;;6.43;2.50;;;;;;;25.52;49.17;100973.72;5039444;28;20037;-82
2023/07/12 09:13:46;;;;;;;4.72;2.50;;;;;;;25.58;49.22;100985.38;5043840;28;20037;-82
2023/07/12 09:16:29;;;;;;;4.63;2.40;;;;;;;25.62;49.03;100975.91;5039992;28;20037;-81
2023/07/12 09:19:11;;;;;;;4.90;2.97;;;;;;;25.58;49.30;100966.72;5025095;28;20091;-84
2023/07/12 09:21:38;;;;;;;6.07;2.63;;;;;;;25.65;49.33;100983.47;5037528;28;20060;-83
2023/07/12 09:24:19;;;;;;;4.38;1.98;;;;;;;25.63;49.47;100988.22;5040442;28;20611;-83
2023/07/12 09:26:44;;;;;;;5.28;2.80;;;;;;;25.63;49.26;100982.88;5039600;28;20040;-83
2023/07/12 09:29:18;;;;;;;3.92;2.47;;;;;;;25.61;49.60;100980.41;5038601;28;20028;-83
2023/07/12 09:31:45;;;;;;;2.85;2.33;;;;;;;25.60;49.24;100981.44;5031571;28;20277;-83
2023/07/12 09:34:37;;;;;;;4.97;2.30;;;;;;;25.62;49.42;100978.56;5049388;28;20482;-82
2023/07/12 09:37:03;;;;;;;3.22;2.30;;;;;;;25.60;49.33;100980.63;5031134;28;20680;-82
2023/07/12 09:39:29;;;;;;;3.42;2.05;;;;;;;25.64;49.10;100987.16;5054587;28;20088;-83
2023/07/12 09:41:58;;;;;;;3.47;2.20;;;;;;;25.64;49.16;100995.16;5031875;28;20026;-83
2023/07/12 09:44:24;;;;;;;4.67;2.53;;;;;;;25.61;49.53;100995.59;5026246;28;20052;-82
2023/07/12 09:47:15;;;;;;;3.65;2.13;;;;;;;25.54;49.53;100989.50;5036953;28;20056;-83
2023/07/12 09:49:52;;;;;;;4.93;2.78;;;;;;;25.64;49.31;101002.34;5036100;28;20076;-83
2023/07/12 09:52:24;;;;;;;4.97;2.50;;;;;;;25.58;49.36;100985.38;5030901;28;20065;-81
2023/07/12 09:55:03;;;;;;;4.82;2.38;;;;;;;25.66;49.38;100985.09;5027712;28;20069;-83
2023/07/12 09:57:47;;;;;;;8.40;2.45;;;;;;;25.70;49.25;100988.22;5032568;28;20060;-81
2023/07/12 10:00:31;;;;;;;4.53;2.75;;;;;;;25.69;49.13;101010.59;5037291;28;20476;-83
2023/07/12 10:03:22;;;;;;;4.43;2.78;;;;;;;25.65;49.22;101007.47;5038014;28;20025;-83
2023/07/12 10:05:55;;;;;;;4.85;2.65;;;;;;;25.60;49.48;101007.31;5050825;28;20613;-83
2023/07/12 10:08:22;;;;;;;6.40;2.70;;;;;;;25.65;49.45;101010.13;5034702;28;20041;-83
2023/07/12 10:11:06;;;;;;;5.50;2.33;;;;;;;25.65;49.26;101002.13;5036888;28;20133;-83
2023/07/12 10:14:02;;;;;;;3.58;2.13;;;;;;;25.67;49.53;101012.59;5037315;28;20120;-83
2023/07/12 10:16:34;;;;;;;3.03;2.22;;;;;;;25.68;49.02;100996.44;5035902;28;20049;-83
2023/07/12 10:19:15;;;;;;;4.82;2.90;;;;;;;25.63;49.08;100984.72;5036522;28;20822;-83
2023/07/12 10:21:41;;;;;;;3.58;2.20;;;;;;;25.66;49.18;100986.94;5040552;28;20093;-85
2023/07/12 10:24:14;;;;;;;5.10;2.35;;;;;;;25.63;49.12;100980.19;5041289;28;20049;-86
2023/07/12 10:26:42;;;;;;;4.35;2.25;;;;;;;25.68;49.36;100987.63;5037923;28;20041;-85
2023/07/12 10:29:16;;;;;;;4.28;2.22;;;;;;;25.60;49.38;100993.97;5032660;28;20018;-87
2023/07/12 10:31:46;;;;;;;5.03;2.60;;;;;;;25.66;49.28;101008.28;5053277;28;20037;-86
2023/07/12 10:34:33;;;;;;;3.65;2.40;;;;;;;25.59;49.34;100997.66;5035293;28;20036;-87
2023/07/12 10:37:14;;;;;;;4.97;2.53;;;;;;;25.67;49.24;101008.06;5033886;28;20067;-86
2023/07/12 10:39:40;;;;;;;4.80;2.60;;;;;;;25.70;48.93;101009.56;5034037;28;20044;-86
2023/07/12 10:42:18;;;;;;;2.80;1.95;;;;;;;25.71;49.17;101004.00;5038377;28;20033;-86
2023/07/12 10:44:51;;;;;;;3.30;1.90;;;;;;;25.73;48.92;101001.94;5029047;28;20014;-86
2023/07/12 10:47:19;;;;;;;3.47;2.30;;;;;;;25.73;48.98;101015.28;5035710;28;20028;-86
2023/07/12 10:49:52;;;;;;;4.28;2.00;;;;;;;25.72;49.14;101002.97;5041176;28;20045;-86
2023/07/12 10:53:02;;;;;;;4.75;2.15;;;;;;;25.73;49.11;101001.13;5036520;28;20050;-85
2023/07/12 10:56:07;;;;;;;2.53;1.98;;;;;;;25.74;48.81;101016.09;5044673;28;20064;-84
2023/07/12 10:58:49;;;;;;;3.20;2.10;;;;;;;25.77;48.89;101045.00;5033651;28;20089;-85
2023/07/12 11:01:35;;;;;;;2.95;2.08;;;;;;;25.78;48.45;101022.63;5031276;28;20083;-85
2023/07/12 11:04:09;;;;;;;2.95;2.63;;;;;;;25.78;48.72;101031.44;5035109;28;20045;-86
2023/07/12 11:06:52;;;;;;;2.90;1.83;;;;;;;25.73;48.36;101009.94;5039008;28;20048;-86
2023/07/12 11:09:18;;;;;;;4.40;1.77;;;;;;;25.74;48.77;101034.75;5036467;28;20060;-85
2023/07/12 11:11:49;;;;;;;3.42;2.00;;;;;;;25.76;48.29;101040.69;5039147;28;20475;-86
2023/07/12 11:14:19;;;;;;;3.90;2.28;;;;;;;25.76;48.60;101041.50;5042663;28;20047;-85
2023/07/12 11:17:07;;;;;;;2.88;1.85;;;;;;;25.78;48.23;101042.09;5029531;28;20033;-86
2023/07/12 11:19:39;;;;;;;4.25;2.03;;;;;;;25.80;48.43;101040.03;5037109;28;20033;-85
2023/07/12 11:22:12;;;;;;;3.15;2.03;;;;;;;25.78;48.17;101052.78;5034946;28;20045;-85
2023/07/12 11:24:52;;;;;;;4.65;1.95;;;;;;;25.72;48.07;101050.16;5030297;28;20470;-85
2023/07/12 11:27:37;;;;;;;3.28;2.35;;;;;;;25.75;48.46;101063.88;5025320;28;20052;-86
2023/07/12 11:30:24;;;;;;;3.67;2.03;;;;;;;25.73;48.51;101065.13;5046958;28;20037;-85
2023/07/12 11:32:57;;;;;;;3.10;2.15;;;;;;;25.69;48.54;101064.75;5041048;28;20052;-86